Weather at Air Orlando Heliport

Public forecast

Using degrees Fahrenheit for public forecast. Weather courtesy of forecast.io.

Closest aviation weather report (METAR) to Air Orlando Heliport

Closest report is Orlando International Airport, 8.7 nm (16.1 km) E. Retrieved 2022/01/17 03:53 UTC (1 hour ago):

KMCO 170353Z 25015G21KT 10SM FEW030 BKN060 16/09 A2985 RMK AO2 SLP108 T01560089

Closest aviation forecast (TAF) to Air Orlando Heliport

Forecast is more than 6 hours old.

Closest forecast is Orlando International Airport, 8.7 nm (16.1 km) E. Retrieved 2022/01/16 18:42 UTC (10 hours ago):

TAF KMCO 161739Z 1618/1724 25016G21KT P6SM FEW015 BKN060 BKN100 FM162200 26016G25KT P6SM BKN050 OVC200 FM171000 29013KT P6SM SCT050 BKN250 FM171600 28014G21KT P6SM FEW060 FEW250 FM172300 29008KT P6SM SKC